Time;durP1;ratioP1;P1;durP2;ratioP2;P2;SDS_P1;SDS_P2;PMS_P1;PMS_P2;Temp;Humidity;BMP_temperature;BMP_pressure;BME280_temperature;BME280_humidity;BME280_pressure;Samples;Min_cycle;Max_cycle;Signal;HPM_P1;HPM_P2
2022/12/28 00:01:54;;;;;;;4.90;1.10;;;;;;;;;;5018511;28;20459;-67
2022/12/28 00:04:19;;;;;;;5.13;1.45;;;;;;;;;;5019405;28;20033;-67
2022/12/28 00:06:46;;;;;;;5.37;1.43;;;;;;;;;;5018941;28;20076;-65
2022/12/28 00:09:11;;;;;;;5.68;1.50;;;;;;;;;;5031104;28;20392;-66
2022/12/28 00:11:37;;;;;;;6.38;1.70;;;;;;;;;;5027085;28;20018;-68
2022/12/28 00:14:02;;;;;;;4.53;1.40;;;;;;;;;;5031913;28;20393;-67
2022/12/28 00:16:28;;;;;;;5.18;1.30;;;;;;;;;;5028665;28;20143;-65
2022/12/28 00:18:54;;;;;;;7.97;1.80;;;;;;;;;;5028346;28;20030;-66
2022/12/28 00:21:19;;;;;;;4.28;1.38;;;;;;;;;;5029011;28;20029;-66
2022/12/28 00:23:47;;;;;;;5.85;1.70;;;;;;;;;;5028952;28;20028;-66
2022/12/28 00:26:12;;;;;;;4.93;1.45;;;;;;;;;;5032160;28;20472;-66
2022/12/28 00:28:37;;;;;;;6.35;1.50;;;;;;;;;;5022375;28;20032;-66
2022/12/28 00:31:03;;;;;;;5.60;1.60;;;;;;;;;;5030586;28;20029;-66
2022/12/28 00:33:28;;;;;;;4.93;1.57;;;;;;;;;;5027628;28;20151;-66
2022/12/28 00:35:57;;;;;;;7.27;1.97;;;;;;;;;;5023472;28;20490;-66
2022/12/28 00:38:22;;;;;;;6.90;1.85;;;;;;;;;;5021603;28;20029;-65
2022/12/28 00:40:48;;;;;;;5.37;2.10;;;;;;;;;;5021784;28;20487;-66
2022/12/28 00:43:13;;;;;;;5.15;1.70;;;;;;;;;;5022158;28;20076;-66
2022/12/28 00:45:38;;;;;;;7.32;1.60;;;;;;;;;;5030453;28;20029;-66
2022/12/28 00:48:03;;;;;;;10.15;2.10;;;;;;;;;;5029718;28;20034;-66
2022/12/28 00:50:28;;;;;;;6.05;1.63;;;;;;;;;;5017184;28;20392;-66
2022/12/28 00:52:53;;;;;;;4.97;1.55;;;;;;;;;;5030031;28;20026;-66
2022/12/28 00:55:19;;;;;;;9.20;2.17;;;;;;;;;;5028420;28;20036;-66
2022/12/28 00:57:44;;;;;;;5.23;1.60;;;;;;;;;;5031020;28;20032;-66
2022/12/28 01:00:09;;;;;;;6.00;2.15;;;;;;;;;;5023803;28;20025;-66
2022/12/28 01:02:35;;;;;;;5.70;1.67;;;;;;;;;;5027041;28;20056;-66
2022/12/28 01:05:00;;;;;;;5.00;1.80;;;;;;;;;;5015635;28;20029;-66
2022/12/28 01:07:25;;;;;;;6.47;1.80;;;;;;;;;;5022807;28;20117;-66
2022/12/28 01:09:50;;;;;;;6.83;1.90;;;;;;;;;;5028592;28;20075;-66
2022/12/28 01:12:15;;;;;;;5.40;1.60;;;;;;;;;;5024889;28;20111;-66
2022/12/28 01:14:40;;;;;;;6.05;1.98;;;;;;;;;;5020241;28;20025;-66
2022/12/28 01:17:05;;;;;;;6.03;2.15;;;;;;;;;;5029419;28;20021;-66
2022/12/28 01:19:31;;;;;;;5.45;1.88;;;;;;;;;;5027135;28;20009;-67
2022/12/28 01:21:56;;;;;;;7.03;2.40;;;;;;;;;;5019568;28;20075;-66
2022/12/28 01:24:22;;;;;;;8.35;2.30;;;;;;;;;;5026534;28;20143;-66
2022/12/28 01:26:47;;;;;;;5.63;1.93;;;;;;;;;;5030418;28;20116;-66
2022/12/28 01:29:12;;;;;;;5.53;1.88;;;;;;;;;;5030662;28;20041;-66
2022/12/28 01:31:37;;;;;;;6.23;2.00;;;;;;;;;;5029566;28;20036;-65
2022/12/28 01:34:02;;;;;;;5.15;1.88;;;;;;;;;;5027980;28;20484;-65
2022/12/28 01:36:30;;;;;;;5.10;1.70;;;;;;;;;;5027014;28;20025;-66
2022/12/28 01:38:56;;;;;;;8.05;1.83;;;;;;;;;;5020167;28;20021;-65
2022/12/28 01:41:22;;;;;;;6.63;2.00;;;;;;;;;;5021655;28;20022;-66
2022/12/28 01:43:50;;;;;;;5.95;2.00;;;;;;;;;;5030512;28;20051;-66
2022/12/28 01:46:17;;;;;;;7.40;2.40;;;;;;;;;;5024609;28;20033;-65
2022/12/28 01:48:47;;;;;;;5.47;2.20;;;;;;;;;;5027469;28;20025;-66
2022/12/28 01:51:12;;;;;;;7.57;2.50;;;;;;;;;;5021512;28;20376;-66
2022/12/28 01:53:37;;;;;;;6.43;1.97;;;;;;;;;;5018791;28;20108;-65
2022/12/28 01:56:03;;;;;;;6.50;2.20;;;;;;;;;;5020404;28;20033;-65
2022/12/28 01:58:29;;;;;;;6.97;2.05;;;;;;;;;;5027993;28;20074;-65
2022/12/28 02:00:54;;;;;;;6.10;2.30;;;;;;;;;;5017378;28;20030;-65
2022/12/28 02:03:24;;;;;;;13.43;2.40;;;;;;;;;;5020283;28;20485;-65
2022/12/28 02:05:51;;;;;;;8.75;2.30;;;;;;;;;;5020066;28;20025;-65
2022/12/28 02:08:19;;;;;;;6.55;1.95;;;;;;;;;;5018535;28;20408;-65
2022/12/28 02:10:45;;;;;;;7.93;2.40;;;;;;;;;;5024870;28;20477;-66
2022/12/28 02:13:10;;;;;;;8.85;2.35;;;;;;;;;;5012878;28;20132;-66
2022/12/28 02:15:35;;;;;;;7.07;2.20;;;;;;;;;;5020026;28;20112;-68
2022/12/28 02:18:00;;;;;;;7.30;2.40;;;;;;;;;;5025544;28;20026;-66
2022/12/28 02:20:30;;;;;;;6.78;2.38;;;;;;;;;;5025947;28;20022;-66
2022/12/28 02:23:09;;;;;;;6.20;2.05;;;;;;;;;;5025731;28;20032;-66
2022/12/28 02:25:34;;;;;;;;;;;;;;;;;;5025573;28;20040;-66
2022/12/28 02:28:06;;;;;;;5.10;1.92;;;;;;;;;;5028296;28;19909;-66
2022/12/28 02:30:33;;;;;;;6.03;2.30;;;;;;;;;;5025645;28;20026;-66
2022/12/28 02:32:58;;;;;;;;;;;;;;;;;;5029741;28;20033;-66
2022/12/28 02:35:44;;;;;;;6.18;2.30;;;;;;;;;;5021984;28;19913;-66
2022/12/28 02:38:09;;;;;;;8.10;2.13;;;;;;;;;;5028202;28;20105;-66
2022/12/28 02:40:38;;;;;;;7.55;2.20;;;;;;;;;;5013879;28;20113;-65
2022/12/28 02:43:03;;;;;;;8.23;2.67;;;;;;;;;;5016129;28;20043;-65
2022/12/28 02:51:12;;;;;;;8.35;2.63;;;;;;;;;;5030116;28;20451;-65
2022/12/28 02:53:51;;;;;;;8.65;2.78;;;;;;;;;;5022361;28;20536;-65
2022/12/28 02:56:31;;;;;;;7.18;2.42;;;;;;;;;;5012496;28;20037;-66
2022/12/28 02:59:15;;;;;;;8.02;2.47;;;;;;;;;;5010466;28;20022;-66
2022/12/28 03:01:45;;;;;;;6.90;2.42;;;;;;;;;;5010634;28;20144;-66
2022/12/28 03:04:23;;;;;;;6.10;2.20;;;;;;;;;;5010427;28;20380;-67
2022/12/28 03:09:53;;;;;;;6.00;2.20;;;;;;;;;;5029146;28;20082;-66
2022/12/28 03:12:28;;;;;;;8.63;2.35;;;;;;;;;;5018605;28;20025;-66
2022/12/28 03:15:02;;;;;;;9.35;2.45;;;;;;;;;;5028557;28;20168;-66
2022/12/28 03:31:19;;;;;;;9.90;2.70;;;;;;;;;;5016731;28;20036;-67
2022/12/28 03:33:44;;;;;;;;;;;;;;;;;;5028742;28;20035;-65
2022/12/28 03:36:14;;;;;;;6.77;2.40;;;;;;;;;;5033570;28;20066;-66
2022/12/28 03:38:54;;;;;;;6.95;2.35;;;;;;;;;;5025268;28;20009;-65
2022/12/28 03:41:23;;;;;;;6.70;2.40;;;;;;;;;;5032629;28;20021;-67
2022/12/28 03:43:50;;;;;;;7.25;2.75;;;;;;;;;;5027447;28;20018;-65
2022/12/28 03:46:18;;;;;;;7.68;2.53;;;;;;;;;;5021916;28;20029;-66
2022/12/28 03:48:44;;;;;;;9.48;2.50;;;;;;;;;;5028353;28;20527;-66
2022/12/28 03:51:11;;;;;;;8.32;2.72;;;;;;;;;;5029720;28;20034;-67
2022/12/28 03:53:39;;;;;;;7.43;2.60;;;;;;;;;;5027464;28;20125;-65
2022/12/28 03:56:08;;;;;;;7.05;2.80;;;;;;;;;;5026258;28;20029;-66
2022/12/28 03:58:33;;;;;;;8.85;3.28;;;;;;;;;;5023813;28;20018;-67
2022/12/28 04:00:59;;;;;;;9.97;2.83;;;;;;;;;;5023980;28;20027;-67
2022/12/28 04:03:24;;;;;;;9.20;3.20;;;;;;;;;;5018367;28;20396;-66
2022/12/28 04:05:49;;;;;;;8.13;2.50;;;;;;;;;;5029866;28;20036;-66
2022/12/28 04:08:14;;;;;;;9.57;2.65;;;;;;;;;;5030359;28;20072;-66
2022/12/28 04:10:39;;;;;;;6.57;2.65;;;;;;;;;;5018519;28;20419;-66
2022/12/28 04:13:04;;;;;;;10.40;2.38;;;;;;;;;;5030798;28;20045;-66
2022/12/28 04:15:29;;;;;;;7.00;2.70;;;;;;;;;;5023455;28;20113;-67
2022/12/28 04:17:55;;;;;;;9.13;2.42;;;;;;;;;;5015469;28;20109;-67
2022/12/28 04:20:20;;;;;;;7.73;2.63;;;;;;;;;;5013149;28;20102;-67
2022/12/28 04:22:45;;;;;;;8.38;2.45;;;;;;;;;;5024711;28;20025;-65
2022/12/28 04:25:10;;;;;;;10.85;2.70;;;;;;;;;;5028598;28;20152;-65
2022/12/28 04:27:35;;;;;;;10.60;2.70;;;;;;;;;;5031080;28;20079;-66
2022/12/28 04:30:00;;;;;;;6.63;2.50;;;;;;;;;;5019162;28;20051;-66
2022/12/28 04:32:26;;;;;;;7.07;2.10;;;;;;;;;;5016378;28;20100;-66
2022/12/28 04:34:51;;;;;;;9.45;2.83;;;;;;;;;;5024235;28;20024;-65
2022/12/28 04:37:16;;;;;;;7.63;2.40;;;;;;;;;;5029200;28;20108;-66
2022/12/28 04:39:41;;;;;;;6.38;2.20;;;;;;;;;;5024551;28;20022;-65
2022/12/28 04:42:06;;;;;;;7.83;2.33;;;;;;;;;;5024419;28;20071;-65
2022/12/28 04:44:32;;;;;;;9.55;2.50;;;;;;;;;;5019982;28;20366;-65
2022/12/28 04:46:57;;;;;;;6.20;2.70;;;;;;;;;;5020422;28;20017;-65
2022/12/28 04:49:22;;;;;;;7.97;2.38;;;;;;;;;;5028372;28;20022;-66
2022/12/28 04:51:47;;;;;;;6.47;2.70;;;;;;;;;;5027247;28;20103;-66
2022/12/28 04:54:13;;;;;;;8.20;2.33;;;;;;;;;;5014682;28;20105;-67
2022/12/28 04:56:38;;;;;;;6.40;2.20;;;;;;;;;;5024698;28;20026;-67
2022/12/28 04:59:03;;;;;;;9.90;2.45;;;;;;;;;;5028993;28;20053;-65
2022/12/28 05:01:29;;;;;;;6.97;2.20;;;;;;;;;;5026824;28;20496;-66
2022/12/28 05:03:54;;;;;;;9.90;2.80;;;;;;;;;;5012437;28;20026;-65
2022/12/28 05:06:21;;;;;;;7.03;2.22;;;;;;;;;;5027374;28;20041;-66
2022/12/28 05:08:46;;;;;;;8.30;2.53;;;;;;;;;;5031499;28;20025;-66
2022/12/28 05:11:16;;;;;;;7.78;2.35;;;;;;;;;;5025588;28;20029;-65
2022/12/28 05:13:41;;;;;;;8.15;2.58;;;;;;;;;;5029698;28;20080;-67
2022/12/28 05:16:08;;;;;;;9.77;2.70;;;;;;;;;;5018134;28;20064;-67
2022/12/28 05:18:33;;;;;;;8.45;2.38;;;;;;;;;;5030125;28;20026;-66
2022/12/28 05:20:59;;;;;;;6.47;2.28;;;;;;;;;;5017406;28;20045;-67
2022/12/28 05:23:24;;;;;;;7.47;2.45;;;;;;;;;;5020352;28;20029;-67
2022/12/28 05:25:52;;;;;;;7.43;2.60;;;;;;;;;;5030628;28;20412;-67
2022/12/28 05:28:17;;;;;;;8.80;2.63;;;;;;;;;;5028230;28;20032;-67
2022/12/28 05:30:43;;;;;;;7.60;2.55;;;;;;;;;;5026039;28;20033;-67
2022/12/28 05:33:08;;;;;;;9.30;2.92;;;;;;;;;;5025018;28;20533;-68
2022/12/28 05:35:33;;;;;;;7.17;2.80;;;;;;;;;;5016907;28;20032;-67
2022/12/28 05:37:59;;;;;;;8.98;2.60;;;;;;;;;;5018447;28;20071;-67
2022/12/28 05:40:24;;;;;;;8.88;2.30;;;;;;;;;;5020473;28;20025;-67
2022/12/28 05:42:49;;;;;;;6.80;2.60;;;;;;;;;;5020975;28;20157;-68
2022/12/28 05:45:14;;;;;;;8.57;2.60;;;;;;;;;;5021812;28;20477;-67
2022/12/28 05:47:39;;;;;;;8.67;2.80;;;;;;;;;;5026680;28;20105;-68
2022/12/28 05:50:04;;;;;;;7.10;2.60;;;;;;;;;;5028872;28;20426;-66
2022/12/28 05:52:31;;;;;;;7.23;2.47;;;;;;;;;;5027925;28;20106;-66
2022/12/28 05:54:56;;;;;;;7.78;2.67;;;;;;;;;;5023773;28;20096;-66
2022/12/28 05:57:21;;;;;;;7.28;2.75;;;;;;;;;;5021533;28;20160;-67
2022/12/28 05:59:46;;;;;;;8.63;3.08;;;;;;;;;;5019197;28;20030;-64
2022/12/28 06:02:11;;;;;;;6.38;1.92;;;;;;;;;;5017071;28;20018;-65
2022/12/28 06:04:37;;;;;;;6.53;2.25;;;;;;;;;;5028452;28;20502;-65
2022/12/28 06:07:02;;;;;;;5.85;1.98;;;;;;;;;;5024981;28;20025;-65
2022/12/28 06:09:27;;;;;;;10.65;2.60;;;;;;;;;;5025589;28;20037;-65
2022/12/28 06:11:52;;;;;;;7.97;2.50;;;;;;;;;;5014426;28;20560;-64
2022/12/28 06:14:17;;;;;;;8.43;2.50;;;;;;;;;;5027162;28;20037;-64
2022/12/28 06:16:42;;;;;;;8.80;2.53;;;;;;;;;;5012940;28;20524;-64
2022/12/28 06:19:09;;;;;;;8.87;2.33;;;;;;;;;;5010005;28;20022;-65
2022/12/28 06:21:35;;;;;;;5.72;2.13;;;;;;;;;;5019678;28;20109;-65
2022/12/28 06:24:01;;;;;;;9.38;1.90;;;;;;;;;;5012945;28;20024;-62
2022/12/28 06:26:28;;;;;;;7.50;2.05;;;;;;;;;;5022486;28;20029;-62
2022/12/28 06:28:53;;;;;;;6.50;2.33;;;;;;;;;;5016557;28;20031;-63
2022/12/28 06:31:19;;;;;;;5.50;2.00;;;;;;;;;;5021018;28;20025;-63
2022/12/28 06:33:45;;;;;;;6.78;2.20;;;;;;;;;;5008162;28;20025;-62
2022/12/28 06:36:15;;;;;;;7.43;2.25;;;;;;;;;;5019164;28;20041;-62
2022/12/28 06:38:40;;;;;;;6.75;2.10;;;;;;;;;;5024348;28;20025;-63
2022/12/28 06:41:06;;;;;;;6.90;1.80;;;;;;;;;;5011904;28;20032;-63
2022/12/28 06:43:32;;;;;;;5.40;1.80;;;;;;;;;;5024957;28;20031;-62
2022/12/28 06:45:57;;;;;;;6.60;2.20;;;;;;;;;;5020783;28;20411;-63
2022/12/28 06:48:23;;;;;;;6.47;2.00;;;;;;;;;;5021055;28;20056;-63
2022/12/28 06:51:17;;;;;;;8.68;1.65;;;;;;;;;;5026903;28;20017;-63
2022/12/28 06:53:43;;;;;;;7.00;1.80;;;;;;;;;;5011332;28;20044;-62
2022/12/28 06:56:11;;;;;;;4.75;1.60;;;;;;;;;;5016128;28;20021;-63
2022/12/28 06:58:36;;;;;;;9.98;2.00;;;;;;;;;;5014567;28;20028;-63
2022/12/28 07:01:12;;;;;;;6.80;1.80;;;;;;;;;;5017367;28;20022;-63
2022/12/28 07:03:37;;;;;;;4.63;1.58;;;;;;;;;;5027553;28;20025;-63
2022/12/28 07:06:03;;;;;;;6.63;1.60;;;;;;;;;;5024796;28;20029;-63
2022/12/28 07:08:28;;;;;;;7.70;1.83;;;;;;;;;;5026227;28;20037;-63
2022/12/28 07:10:54;;;;;;;4.25;1.40;;;;;;;;;;5027030;28;20094;-63
2022/12/28 07:13:19;;;;;;;7.50;1.50;;;;;;;;;;5019383;28;20041;-64
2022/12/28 07:15:44;;;;;;;4.73;1.53;;;;;;;;;;5026988;28;20021;-64
2022/12/28 07:18:09;;;;;;;6.22;1.73;;;;;;;;;;5022256;28;20518;-64
2022/12/28 07:20:34;;;;;;;5.53;1.42;;;;;;;;;;5028120;28;20018;-64
2022/12/28 07:23:00;;;;;;;5.95;1.60;;;;;;;;;;5022338;28;20041;-64
2022/12/28 07:25:25;;;;;;;5.68;1.58;;;;;;;;;;5011010;28;20022;-64
2022/12/28 07:27:50;;;;;;;6.93;1.80;;;;;;;;;;5018340;28;20029;-64
2022/12/28 07:30:15;;;;;;;6.37;1.80;;;;;;;;;;5024260;28;20463;-64
2022/12/28 07:32:40;;;;;;;7.03;2.10;;;;;;;;;;5021616;28;20025;-65
2022/12/28 07:35:06;;;;;;;5.47;1.47;;;;;;;;;;5015762;28;20038;-64
2022/12/28 07:37:31;;;;;;;6.07;1.42;;;;;;;;;;5013941;28;20026;-65
2022/12/28 07:39:56;;;;;;;6.78;1.65;;;;;;;;;;5029032;28;20075;-64
2022/12/28 07:42:21;;;;;;;4.67;1.80;;;;;;;;;;5011343;28;20105;-64
2022/12/28 07:44:47;;;;;;;5.80;1.63;;;;;;;;;;5020171;28;20053;-64
2022/12/28 07:47:12;;;;;;;4.82;1.52;;;;;;;;;;5011609;28;20034;-64
2022/12/28 07:49:37;;;;;;;6.43;1.73;;;;;;;;;;5011015;28;20169;-64
2022/12/28 07:52:02;;;;;;;4.37;1.80;;;;;;;;;;5007375;28;20107;-64
2022/12/28 07:54:27;;;;;;;5.47;1.80;;;;;;;;;;5016374;28;20022;-64
2022/12/28 07:56:52;;;;;;;5.95;1.67;;;;;;;;;;5020576;28;20025;-64
2022/12/28 07:59:18;;;;;;;5.95;1.60;;;;;;;;;;5025839;28;20028;-64
2022/12/28 08:01:43;;;;;;;4.43;1.40;;;;;;;;;;5024701;28;20112;-65
2022/12/28 08:04:10;;;;;;;5.97;1.60;;;;;;;;;;5026706;28;20029;-65
2022/12/28 08:06:37;;;;;;;5.63;1.63;;;;;;;;;;5025691;28;20104;-64
2022/12/28 08:09:03;;;;;;;5.97;1.60;;;;;;;;;;5026470;28;20072;-64
2022/12/28 08:11:30;;;;;;;3.67;1.40;;;;;;;;;;5024471;28;20052;-64
2022/12/28 08:13:55;;;;;;;;;;;;;;;;;;5023181;28;20133;-64
2022/12/28 08:16:21;;;;;;;6.57;1.52;;;;;;;;;;5018682;28;19967;-64
2022/12/28 08:18:47;;;;;;;5.47;1.55;;;;;;;;;;5026491;28;20456;-64
2022/12/28 08:21:14;;;;;;;5.97;1.63;;;;;;;;;;5028920;28;20021;-65
2022/12/28 08:23:40;;;;;;;7.22;1.50;;;;;;;;;;5030531;28;20029;-65
2022/12/28 08:26:06;;;;;;;5.50;1.70;;;;;;;;;;5028572;28;20101;-64
2022/12/28 08:28:31;;;;;;;6.80;1.50;;;;;;;;;;5029797;28;20044;-64
2022/12/28 08:30:56;;;;;;;7.27;1.60;;;;;;;;;;5030122;28;20080;-64
2022/12/28 08:33:21;;;;;;;5.90;1.83;;;;;;;;;;5025875;28;20026;-64
2022/12/28 08:35:47;;;;;;;5.63;1.50;;;;;;;;;;5025068;28;20036;-64
2022/12/28 08:38:12;;;;;;;3.90;1.58;;;;;;;;;;5023418;28;20141;-64
2022/12/28 08:40:37;;;;;;;6.07;1.65;;;;;;;;;;5014026;28;20025;-64
2022/12/28 08:43:02;;;;;;;4.77;1.80;;;;;;;;;;5021915;28;20021;-64
2022/12/28 08:45:27;;;;;;;6.57;2.10;;;;;;;;;;5029055;28;20454;-63
2022/12/28 08:47:52;;;;;;;4.30;1.57;;;;;;;;;;5027129;28;20112;-63
2022/12/28 08:50:18;;;;;;;9.73;2.00;;;;;;;;;;5024165;28;20038;-63
2022/12/28 08:52:43;;;;;;;5.28;1.80;;;;;;;;;;5029442;28;20032;-63
2022/12/28 08:55:08;;;;;;;7.30;2.00;;;;;;;;;;5028264;28;20021;-62
2022/12/28 08:57:33;;;;;;;5.70;1.90;;;;;;;;;;5028667;28;20110;-62
2022/12/28 08:59:58;;;;;;;8.23;1.77;;;;;;;;;;5027887;28;20018;-62
2022/12/28 09:02:24;;;;;;;7.63;1.75;;;;;;;;;;5031871;28;20045;-62
2022/12/28 09:04:49;;;;;;;6.30;1.80;;;;;;;;;;5031843;28;20795;-63
2022/12/28 09:07:14;;;;;;;4.60;1.63;;;;;;;;;;5032222;28;20064;-62
2022/12/28 09:09:39;;;;;;;5.18;1.52;;;;;;;;;;5030356;28;20495;-62
2022/12/28 09:12:06;;;;;;;6.20;2.00;;;;;;;;;;5015722;28;20037;-61
2022/12/28 09:14:31;;;;;;;6.80;1.90;;;;;;;;;;5025967;28;20084;-63
2022/12/28 09:16:56;;;;;;;6.93;2.07;;;;;;;;;;5027140;28;20477;-63
2022/12/28 09:19:21;;;;;;;7.13;2.03;;;;;;;;;;5018696;28;20455;-63
2022/12/28 09:21:47;;;;;;;5.47;2.30;;;;;;;;;;5027458;28;20431;-62
2022/12/28 09:24:13;;;;;;;6.55;2.25;;;;;;;;;;5024759;28;20467;-63
2022/12/28 09:26:38;;;;;;;10.50;2.90;;;;;;;;;;5025092;28;20017;-63
2022/12/28 09:29:04;;;;;;;7.90;2.57;;;;;;;;;;5028946;28;20077;-63
2022/12/28 09:31:31;;;;;;;6.32;2.33;;;;;;;;;;5029769;28;20112;-61
2022/12/28 09:33:57;;;;;;;7.05;2.10;;;;;;;;;;5023878;28;20021;-63
2022/12/28 09:36:23;;;;;;;;;;;;;;;;;;5025751;28;20441;-63
2022/12/28 09:38:48;;;;;;;6.50;2.10;;;;;;;;;;5029602;28;20354;-63
2022/12/28 09:41:35;;;;;;;6.57;2.42;;;;;;;;;;5019812;28;20021;-63
2022/12/28 09:44:08;;;;;;;5.53;2.40;;;;;;;;;;5029706;28;20100;-63
2022/12/28 09:46:35;;;;;;;6.85;2.65;;;;;;;;;;5030936;28;20033;-63
2022/12/28 09:49:01;;;;;;;5.53;2.58;;;;;;;;;;5031508;28;20063;-62
2022/12/28 09:51:34;;;;;;;6.82;2.60;;;;;;;;;;5031292;28;20056;-62
2022/12/28 09:53:59;;;;;;;6.97;2.75;;;;;;;;;;5031167;28;20017;-63
2022/12/28 09:56:29;;;;;;;5.60;2.27;;;;;;;;;;5030470;28;20531;-63
2022/12/28 09:58:54;;;;;;;7.07;2.60;;;;;;;;;;5024324;28;20488;-63
2022/12/28 10:01:20;;;;;;;6.35;2.45;;;;;;;;;;5027627;28;20037;-63
2022/12/28 10:03:46;;;;;;;6.53;2.30;;;;;;;;;;5031391;28;20028;-63
2022/12/28 10:06:13;;;;;;;5.60;2.10;;;;;;;;;;5029304;28;20025;-60
2022/12/28 10:08:38;;;;;;;;;;;;;;;;;;5031862;28;20033;-61
2022/12/28 10:11:03;;;;;;;5.55;2.00;;;;;;;;;;5031459;28;19920;-61
2022/12/28 10:13:37;;;;;;;7.05;2.45;;;;;;;;;;5030556;28;20049;-61
2022/12/28 10:16:03;;;;;;;6.78;2.30;;;;;;;;;;5029872;28;20017;-63
2022/12/28 10:18:28;;;;;;;6.43;2.03;;;;;;;;;;5028366;28;20049;-62
2022/12/28 10:20:54;;;;;;;6.70;2.40;;;;;;;;;;5026735;28;20022;-62
2022/12/28 10:23:24;;;;;;;6.70;2.28;;;;;;;;;;5028159;28;20078;-62
2022/12/28 10:25:50;;;;;;;5.85;2.20;;;;;;;;;;5029196;28;20100;-62
2022/12/28 10:28:17;;;;;;;5.15;2.05;;;;;;;;;;5027760;28;20032;-63
2022/12/28 10:30:46;;;;;;;5.93;2.17;;;;;;;;;;5026748;28;20105;-62
2022/12/28 10:33:16;;;;;;;5.95;2.00;;;;;;;;;;5017420;28;20068;-62
2022/12/28 10:35:41;;;;;;;5.38;2.38;;;;;;;;;;5030248;28;20373;-62
2022/12/28 10:38:27;;;;;;;6.13;1.92;;;;;;;;;;5029857;28;20033;-62
2022/12/28 10:40:58;;;;;;;5.57;2.47;;;;;;;;;;5017962;28;20038;-62
2022/12/28 10:43:25;;;;;;;6.82;2.38;;;;;;;;;;5014270;28;20144;-62
2022/12/28 10:45:51;;;;;;;4.82;2.03;;;;;;;;;;5029708;28;20037;-63
2022/12/28 10:48:24;;;;;;;6.73;2.20;;;;;;;;;;5028899;28;20028;-62
2022/12/28 10:50:52;;;;;;;7.68;2.13;;;;;;;;;;5028601;28;20025;-63
2022/12/28 10:53:19;;;;;;;4.57;1.80;;;;;;;;;;5026331;28;20377;-62
2022/12/28 10:55:44;;;;;;;4.90;1.83;;;;;;;;;;5023350;28;20049;-62
2022/12/28 10:58:18;;;;;;;6.10;1.70;;;;;;;;;;5010700;28;20107;-61
2022/12/28 11:00:51;;;;;;;5.85;1.60;;;;;;;;;;5028358;28;20025;-61
2022/12/28 11:03:16;;;;;;;;;;;;;;;;;;5029003;28;20513;-62
2022/12/28 11:05:41;;;;;;;5.40;1.53;;;;;;;;;;5025900;28;19916;-62
2022/12/28 11:08:11;;;;;;;6.57;1.70;;;;;;;;;;5030002;28;20106;-61
2022/12/28 11:10:38;;;;;;;6.07;1.63;;;;;;;;;;5027742;28;20029;-62
2022/12/28 11:13:07;;;;;;;4.53;1.60;;;;;;;;;;5029475;28;20116;-63
2022/12/28 11:15:32;;;;;;;5.10;1.50;;;;;;;;;;5030395;28;20124;-63
2022/12/28 11:18:10;;;;;;;6.90;1.58;;;;;;;;;;5035982;28;20096;-63
2022/12/28 11:20:37;;;;;;;5.03;1.77;;;;;;;;;;5022939;28;20022;-63
2022/12/28 11:23:07;;;;;;;4.50;1.60;;;;;;;;;;5031043;28;20380;-62
2022/12/28 11:25:33;;;;;;;4.18;1.30;;;;;;;;;;5049664;28;20055;-63
2022/12/28 11:28:00;;;;;;;5.30;1.50;;;;;;;;;;5031880;28;20106;-62
2022/12/28 11:30:25;;;;;;;4.45;1.20;;;;;;;;;;5030058;28;20155;-62
2022/12/28 11:32:53;;;;;;;5.95;1.83;;;;;;;;;;5028724;28;20037;-62
2022/12/28 11:35:22;;;;;;;6.90;1.90;;;;;;;;;;5035220;28;20050;-62
2022/12/28 11:37:55;;;;;;;5.28;1.88;;;;;;;;;;5033636;28;20426;-62
2022/12/28 11:40:39;;;;;;;5.57;1.90;;;;;;;;;;5029811;28;20049;-62
2022/12/28 11:43:04;;;;;;;6.15;1.80;;;;;;;;;;5024155;28;20041;-62
2022/12/28 11:45:48;;;;;;;7.57;2.40;;;;;;;;;;5026747;28;20112;-63
2022/12/28 11:48:32;;;;;;;6.30;2.03;;;;;;;;;;5026240;28;20072;-62
2022/12/28 11:51:03;;;;;;;6.03;2.05;;;;;;;;;;5024101;28;20040;-63
2022/12/28 11:53:31;;;;;;;6.05;2.42;;;;;;;;;;5023726;28;20146;-63
2022/12/28 11:56:04;;;;;;;6.30;2.53;;;;;;;;;;5028151;28;20022;-62
2022/12/28 11:58:29;;;;;;;7.75;2.28;;;;;;;;;;5023938;28;20064;-62
2022/12/28 12:00:55;;;;;;;7.25;2.38;;;;;;;;;;5029197;28;20064;-62
2022/12/28 12:03:40;;;;;;;7.07;2.08;;;;;;;;;;5026520;28;20519;-62
2022/12/28 12:06:06;;;;;;;6.75;2.03;;;;;;;;;;5029654;28;20152;-63
2022/12/28 12:08:31;;;;;;;5.82;2.28;;;;;;;;;;5028362;28;20734;-63
2022/12/28 12:11:15;;;;;;;5.82;2.30;;;;;;;;;;5030299;28;20036;-62
2022/12/28 12:13:41;;;;;;;;;;;;;;;;;;5020871;28;20042;-63
2022/12/28 12:16:15;;;;;;;6.78;2.30;;;;;;;;;;5021794;28;19910;-63
2022/12/28 12:18:47;;;;;;;5.93;2.40;;;;;;;;;;5025198;28;20035;-63
2022/12/28 12:21:20;;;;;;;6.50;2.63;;;;;;;;;;5021361;28;20033;-62
2022/12/28 12:23:54;;;;;;;6.80;2.40;;;;;;;;;;5020688;28;20282;-63
2022/12/28 12:26:26;;;;;;;6.68;2.80;;;;;;;;;;5020487;28;20029;-63
2022/12/28 12:28:52;;;;;;;7.95;2.83;;;;;;;;;;5016489;28;20030;-62
2022/12/28 12:31:23;;;;;;;8.27;2.80;;;;;;;;;;5024180;28;20088;-62
2022/12/28 12:33:49;;;;;;;7.75;3.30;;;;;;;;;;5024307;28;20376;-62
2022/12/28 12:36:20;;;;;;;6.50;2.60;;;;;;;;;;5031174;28;20025;-62
2022/12/28 12:38:54;;;;;;;6.45;2.47;;;;;;;;;;5024407;28;20068;-61
2022/12/28 12:41:27;;;;;;;5.53;2.35;;;;;;;;;;5032217;28;20033;-61
2022/12/28 12:44:09;;;;;;;6.57;2.88;;;;;;;;;;5031157;28;20105;-62
2022/12/28 12:46:53;;;;;;;8.25;2.90;;;;;;;;;;5031248;28;20029;-61
2022/12/28 12:49:36;;;;;;;7.68;3.08;;;;;;;;;;5028527;28;20025;-62
2022/12/28 12:52:13;;;;;;;7.70;2.72;;;;;;;;;;5032712;28;20025;-62
2022/12/28 12:54:53;;;;;;;11.10;2.65;;;;;;;;;;5029046;28;20038;-62
2022/12/28 12:57:25;;;;;;;8.05;2.90;;;;;;;;;;5012817;28;20017;-64
2022/12/28 13:00:09;;;;;;;6.22;2.58;;;;;;;;;;5023383;28;20572;-62
2022/12/28 13:02:44;;;;;;;8.02;2.67;;;;;;;;;;5031752;28;20039;-62
2022/12/28 13:05:15;;;;;;;7.63;3.00;;;;;;;;;;5032973;28;20208;-62
2022/12/28 13:07:40;;;;;;;6.00;2.72;;;;;;;;;;5032012;28;20041;-62
2022/12/28 13:10:08;;;;;;;7.17;3.20;;;;;;;;;;5041440;28;20460;-63
2022/12/28 13:12:34;;;;;;;6.45;2.80;;;;;;;;;;5034745;28;20057;-62
2022/12/28 13:15:01;;;;;;;9.43;3.25;;;;;;;;;;5032258;28;20072;-62
2022/12/28 13:17:26;;;;;;;7.40;2.70;;;;;;;;;;5032091;28;20009;-62
2022/12/28 13:20:06;;;;;;;7.10;2.67;;;;;;;;;;5032053;28;20030;-64
2022/12/28 13:22:32;;;;;;;7.40;2.85;;;;;;;;;;5032048;28;20041;-63
2022/12/28 13:25:00;;;;;;;7.82;3.10;;;;;;;;;;5040978;28;20075;-63
2022/12/28 13:27:30;;;;;;;7.22;2.55;;;;;;;;;;5051916;28;20029;-63
2022/12/28 13:29:55;;;;;;;7.00;2.50;;;;;;;;;;5051939;28;20487;-62
2022/12/28 13:32:24;;;;;;;6.45;2.78;;;;;;;;;;5051901;28;20158;-65
2022/12/28 13:34:49;;;;;;;7.68;2.88;;;;;;;;;;5051938;28;20027;-63
2022/12/28 13:37:15;;;;;;;7.03;2.88;;;;;;;;;;5032779;28;20013;-63
2022/12/28 13:39:41;;;;;;;6.07;2.63;;;;;;;;;;5032827;28;20774;-63
2022/12/28 13:42:32;;;;;;;7.30;2.70;;;;;;;;;;5042999;28;20101;-63
2022/12/28 13:45:06;;;;;;;5.18;2.25;;;;;;;;;;5030734;28;20506;-63
2022/12/28 13:47:34;;;;;;;5.63;2.60;;;;;;;;;;5031511;28;20025;-61
2022/12/28 13:50:02;;;;;;;6.03;2.30;;;;;;;;;;5031654;28;20036;-61
2022/12/28 13:52:29;;;;;;;6.25;2.30;;;;;;;;;;5031338;28;20021;-62
2022/12/28 13:54:57;;;;;;;6.82;2.00;;;;;;;;;;5019502;28;20021;-62
2022/12/28 13:57:24;;;;;;;5.40;1.42;;;;;;;;;;5019690;28;20037;-61
2022/12/28 13:59:49;;;;;;;;;;;;;;;;;;5020080;28;20025;-62
2022/12/28 14:02:16;;;;;;;4.38;1.30;;;;;;;;;;5031025;28;19909;-62
2022/12/28 14:04:41;;;;;;;5.30;1.10;;;;;;;;;;5028086;28;20044;-62
2022/12/28 14:07:10;;;;;;;5.03;1.13;;;;;;;;;;5031587;28;20025;-62
2022/12/28 14:09:36;;;;;;;3.70;0.80;;;;;;;;;;5031913;28;20449;-61
2022/12/28 14:12:01;;;;;;;3.87;0.90;;;;;;;;;;5019308;28;20053;-63
2022/12/28 14:14:27;;;;;;;4.63;0.80;;;;;;;;;;5029105;28;20045;-62
2022/12/28 14:16:52;;;;;;;4.75;0.90;;;;;;;;;;5021269;28;20108;-62
2022/12/28 14:19:17;;;;;;;7.43;1.00;;;;;;;;;;5027221;28;20043;-62
2022/12/28 14:21:44;;;;;;;4.68;1.10;;;;;;;;;;5029780;28;20112;-62
2022/12/28 14:24:14;;;;;;;4.60;1.08;;;;;;;;;;5029698;28;20037;-62
2022/12/28 14:26:51;;;;;;;3.17;1.00;;;;;;;;;;5011104;28;20020;-62
2022/12/28 14:29:19;;;;;;;3.53;0.90;;;;;;;;;;5019418;28;20040;-62
2022/12/28 14:31:44;;;;;;;3.50;0.93;;;;;;;;;;5030190;28;20116;-63
2022/12/28 14:34:19;;;;;;;3.70;0.97;;;;;;;;;;5030294;28;20172;-62
2022/12/28 14:36:49;;;;;;;3.50;0.80;;;;;;;;;;5029528;28;20014;-63
2022/12/28 14:39:21;;;;;;;5.40;1.00;;;;;;;;;;5031930;28;20025;-63
2022/12/28 14:41:47;;;;;;;4.60;0.90;;;;;;;;;;5028802;28;20029;-62
2022/12/28 14:44:13;;;;;;;7.60;1.07;;;;;;;;;;5025703;28;20041;-62
2022/12/28 14:46:40;;;;;;;4.07;0.90;;;;;;;;;;5020422;28;20044;-62
2022/12/28 14:49:29;;;;;;;8.07;1.60;;;;;;;;;;5022729;28;20108;-62
2022/12/28 14:51:55;;;;;;;6.13;2.30;;;;;;;;;;5011299;28;20168;-62
2022/12/28 14:54:24;;;;;;;7.75;2.63;;;;;;;;;;5017634;28;20061;-61
2022/12/28 14:56:54;;;;;;;7.88;3.25;;;;;;;;;;5031218;28;20040;-63
2022/12/28 14:59:25;;;;;;;6.13;2.72;;;;;;;;;;5030035;28;20028;-62
2022/12/28 15:01:50;;;;;;;6.82;2.90;;;;;;;;;;5022589;28;20025;-62
2022/12/28 15:04:34;;;;;;;8.07;3.17;;;;;;;;;;5030960;28;20040;-62
2022/12/28 15:06:59;;;;;;;;;;;;;;;;;;5031665;28;20026;-63
2022/12/28 15:09:24;;;;;;;8.82;3.00;;;;;;;;;;5030070;28;19931;-62
2022/12/28 15:12:05;;;;;;;6.60;2.92;;;;;;;;;;5030736;28;20035;-62